KSMF data

Available data for KSMF from the past 2 hours
SACRAMENTO/METRO, CA
TAF
KSMF 181120Z 1812/1912 VRB06KT P6SM SKC